Time;durP1;ratioP1;P1;durP2;ratioP2;P2;SDS_P1;SDS_P2;PMS_P1;PMS_P2;Temp;Humidity;BMP_temperature;BMP_pressure;BME280_temperature;BME280_humidity;BME280_pressure;Samples;Min_cycle;Max_cycle;Signal;HPM_P1;HPM_P2
2022/05/29 00:00:33;;;;;;;6.18;2.25;;;12.80;62.10;;;;;;5092744;28;20040;-75
2022/05/29 00:02:59;;;;;;;5.65;1.98;;;12.80;62.50;;;;;;5093585;28;20028;-75
2022/05/29 00:05:25;;;;;;;5.85;2.10;;;12.70;62.60;;;;;;5093548;28;20028;-74
2022/05/29 00:07:50;;;;;;;5.72;2.40;;;12.70;62.70;;;;;;5093446;28;20024;-75
2022/05/29 00:10:17;;;;;;;5.25;2.47;;;12.70;62.90;;;;;;5093499;28;20070;-75
2022/05/29 00:12:43;;;;;;;3.95;2.20;;;12.70;63.20;;;;;;5093443;28;20058;-75
2022/05/29 00:15:11;;;;;;;3.97;2.10;;;12.70;63.00;;;;;;5093400;28;20024;-75
2022/05/29 00:17:37;;;;;;;4.25;2.35;;;12.60;63.50;;;;;;5093381;28;20078;-74
2022/05/29 00:20:04;;;;;;;4.45;2.28;;;12.60;63.70;;;;;;5093513;28;20020;-74
2022/05/29 00:22:31;;;;;;;5.97;2.40;;;12.60;63.70;;;;;;5093298;28;20036;-75
2022/05/29 00:24:57;;;;;;;6.05;2.30;;;12.50;64.20;;;;;;5093338;28;20024;-75
2022/05/29 00:27:23;;;;;;;6.28;2.40;;;12.40;64.60;;;;;;5093151;28;20043;-75
2022/05/29 00:29:49;;;;;;;4.65;2.08;;;12.50;64.70;;;;;;5093229;28;20543;-75
2022/05/29 00:32:15;;;;;;;6.57;2.22;;;12.50;64.80;;;;;;5093222;28;20046;-75
2022/05/29 00:34:41;;;;;;;5.88;2.03;;;12.50;66.10;;;;;;5093202;28;20168;-75
2022/05/29 00:37:09;;;;;;;4.43;1.83;;;12.50;65.40;;;;;;5093129;28;20037;-75
2022/05/29 00:39:35;;;;;;;7.10;2.15;;;12.50;65.30;;;;;;5093128;28;20031;-75
2022/05/29 00:42:05;;;;;;;7.70;2.20;;;12.50;66.40;;;;;;5093097;28;20044;-74
2022/05/29 00:44:31;;;;;;;4.57;2.15;;;12.40;65.90;;;;;;5093105;28;20031;-74
2022/05/29 00:47:01;;;;;;;7.28;2.17;;;12.30;66.70;;;;;;5093096;28;20020;-75
2022/05/29 00:49:33;;;;;;;4.80;2.15;;;12.30;66.50;;;;;;5093274;28;20430;-74
2022/05/29 00:52:14;;;;;;;5.20;2.40;;;12.40;66.50;;;;;;5093260;28;20012;-75
2022/05/29 00:54:44;;;;;;;3.45;2.05;;;12.40;66.30;;;;;;5093060;28;20017;-74
2022/05/29 00:57:17;;;;;;;7.03;2.63;;;12.40;66.10;;;;;;5093091;28;20017;-75
2022/05/29 00:59:43;;;;;;;6.47;2.10;;;12.40;66.00;;;;;;5092979;28;20437;-74
2022/05/29 01:02:09;;;;;;;8.13;2.40;;;12.30;66.10;;;;;;5096948;28;20021;-75
2022/05/29 01:04:37;;;;;;;5.55;2.60;;;12.30;66.30;;;;;;5096972;28;20069;-75
2022/05/29 01:07:06;;;;;;;6.43;2.60;;;12.30;66.40;;;;;;5095864;28;20074;-74
2022/05/29 01:09:34;;;;;;;5.22;2.47;;;12.30;66.50;;;;;;5096932;28;20024;-74
2022/05/29 01:12:09;;;;;;;8.40;2.17;;;12.30;66.40;;;;;;5095788;28;20028;-75
2022/05/29 01:14:53;;;;;;;8.85;2.40;;;12.30;66.60;;;;;;5096795;28;20048;-75
2022/05/29 01:17:43;;;;;;;7.45;2.63;;;12.30;66.50;;;;;;5096896;28;20012;-75
2022/05/29 01:20:27;;;;;;;5.65;2.20;;;12.30;66.70;;;;;;5096828;28;20044;-75
2022/05/29 01:23:25;;;;;;;5.15;2.85;;;12.30;67.00;;;;;;5096640;28;20027;-74
2022/05/29 01:26:12;;;;;;;7.40;2.50;;;12.40;66.80;;;;;;5064746;28;20028;-74
2022/05/29 01:28:59;;;;;;;8.38;3.00;;;12.30;67.00;;;;;;5096214;28;20112;-75
2022/05/29 01:31:50;;;;;;;7.85;2.92;;;12.40;67.00;;;;;;5096489;28;20024;-75
2022/05/29 01:34:22;;;;;;;6.80;2.67;;;12.40;67.00;;;;;;5096575;28;20036;-74
2022/05/29 01:37:13;;;;;;;5.68;2.60;;;12.40;67.10;;;;;;5096459;28;20059;-74
2022/05/29 01:39:51;;;;;;;9.40;3.03;;;12.40;67.30;;;;;;5096447;28;20032;-75
2022/05/29 01:42:16;;;;;;;8.00;3.17;;;12.40;67.30;;;;;;5096424;28;20080;-74
2022/05/29 01:44:46;;;;;;;8.18;2.70;;;12.40;67.70;;;;;;5096219;28;20055;-74
2022/05/29 01:47:23;;;;;;;9.60;3.33;;;12.40;67.60;;;;;;5096138;28;20024;-74
2022/05/29 01:49:51;;;;;;;8.00;3.33;;;12.50;67.70;;;;;;5096173;28;20016;-75
2022/05/29 01:52:32;;;;;;;8.80;3.15;;;12.60;67.30;;;;;;5096066;28;20016;-74
2022/05/29 01:55:36;;;;;;;5.15;3.00;;;12.50;67.90;;;;;;5096083;28;20031;-75
2022/05/29 01:58:07;;;;;;;7.85;3.33;;;12.50;68.00;;;;;;5096114;28;20088;-74
2022/05/29 02:00:33;;;;;;;8.35;3.72;;;12.40;68.30;;;;;;5094933;28;20020;-74
2022/05/29 02:03:14;;;;;;;9.05;3.50;;;12.40;68.10;;;;;;5095899;28;20047;-74
2022/05/29 02:05:54;;;;;;;12.52;3.58;;;12.40;68.40;;;;;;5095903;28;20032;-74
2022/05/29 02:08:42;;;;;;;5.78;3.13;;;12.40;68.30;;;;;;5095790;28;20017;-74
2022/05/29 02:11:25;;;;;;;7.03;3.00;;;12.50;68.40;;;;;;5095899;28;20021;-75
2022/05/29 02:14:17;;;;;;;6.60;3.85;;;12.40;68.40;;;;;;5095306;28;20044;-74
2022/05/29 02:16:49;;;;;;;8.45;3.53;;;12.50;68.20;;;;;;5095836;28;20021;-75
2022/05/29 02:19:26;;;;;;;8.45;3.70;;;12.40;68.30;;;;;;5095665;28;20020;-74
2022/05/29 02:21:59;;;;;;;8.95;3.45;;;12.40;68.40;;;;;;5095784;28;20024;-74
2022/05/29 02:24:37;;;;;;;6.72;3.35;;;12.40;68.90;;;;;;5095616;28;20112;-74
2022/05/29 02:27:11;;;;;;;8.20;3.60;;;12.30;69.20;;;;;;5095328;28;20036;-75
2022/05/29 02:29:37;;;;;;;7.22;3.30;;;12.40;69.20;;;;;;5095359;28;20058;-75
2022/05/29 02:32:31;;;;;;;8.55;3.60;;;12.40;69.00;;;;;;5095363;28;20024;-74
2022/05/29 02:35:17;;;;;;;7.28;3.78;;;12.30;69.20;;;;;;5095430;28;20029;-75
2022/05/29 02:38:13;;;;;;;9.10;3.40;;;12.30;69.30;;;;;;5095309;28;20051;-74
2022/05/29 02:40:57;;;;;;;6.93;3.20;;;12.40;69.40;;;;;;5095229;28;20028;-75
2022/05/29 02:43:33;;;;;;;7.78;2.95;;;12.40;69.10;;;;;;5095216;28;20054;-74
2022/05/29 02:46:14;;;;;;;6.57;3.33;;;12.40;69.00;;;;;;5095135;28;20025;-75
2022/05/29 02:49:19;;;;;;;10.23;3.70;;;12.50;69.10;;;;;;5095125;28;20028;-74
2022/05/29 02:52:08;;;;;;;8.82;3.00;;;12.60;69.10;;;;;;5093980;28;20016;-74
2022/05/29 02:54:34;;;;;;;6.28;2.80;;;12.50;69.00;;;;;;5094977;28;20021;-74
2022/05/29 02:57:01;;;;;;;9.60;3.60;;;12.50;69.10;;;;;;5094878;28;20020;-74
2022/05/29 02:59:52;;;;;;;7.45;3.17;;;12.50;69.30;;;;;;5094793;28;20087;-74
2022/05/29 03:02:37;;;;;;;11.00;3.60;;;12.40;70.30;;;;;;5094806;28;20024;-74
2022/05/29 03:05:37;;;;;;;6.38;2.90;;;12.40;69.50;;;;;;5094765;28;20092;-74
2022/05/29 03:08:19;;;;;;;5.57;3.17;;;12.40;69.50;;;;;;5094650;28;20080;-74
2022/05/29 03:10:51;;;;;;;7.13;3.38;;;12.40;69.50;;;;;;5094659;28;20029;-74
2022/05/29 03:13:54;;;;;;;7.75;3.10;;;12.40;69.40;;;;;;5094702;28;20025;-75
2022/05/29 03:16:37;;;;;;;8.35;3.45;;;12.30;69.60;;;;;;5094534;28;20094;-74
2022/05/29 03:19:37;;;;;;;8.75;3.20;;;12.20;70.10;;;;;;5093418;28;20395;-74
2022/05/29 03:22:34;;;;;;;7.57;3.20;;;12.30;69.80;;;;;;5090071;28;20059;-74
2022/05/29 03:25:12;;;;;;;7.53;3.10;;;12.30;69.90;;;;;;5069280;28;20111;-74
2022/05/29 03:27:43;;;;;;;6.07;3.17;;;12.40;69.90;;;;;;5093904;28;20056;-74
2022/05/29 03:30:15;;;;;;;9.05;3.35;;;12.30;70.20;;;;;;5093290;28;20024;-75
2022/05/29 03:32:42;;;;;;;6.50;3.20;;;12.40;70.30;;;;;;5094234;28;20029;-75
2022/05/29 03:35:16;;;;;;;7.35;3.55;;;12.40;70.10;;;;;;5094105;28;20502;-75
2022/05/29 03:37:42;;;;;;;7.97;3.10;;;12.50;70.10;;;;;;5094040;28;20040;-75
2022/05/29 03:40:09;;;;;;;7.18;3.30;;;12.50;70.30;;;;;;5094015;28;20040;-74
2022/05/29 03:42:35;;;;;;;8.35;3.40;;;12.50;70.20;;;;;;5093917;28;20025;-75
2022/05/29 03:45:00;;;;;;;5.63;3.40;;;12.50;70.30;;;;;;5093942;28;20032;-74
2022/05/29 03:47:27;;;;;;;5.63;2.85;;;12.60;70.30;;;;;;5093810;28;20028;-75
2022/05/29 03:49:52;;;;;;;8.75;3.40;;;12.50;70.60;;;;;;5093846;28;20020;-75
2022/05/29 03:52:18;;;;;;;11.50;3.90;;;12.50;71.30;;;;;;5093797;28;20017;-75
2022/05/29 03:54:44;;;;;;;7.93;3.67;;;12.40;71.40;;;;;;5093892;28;20028;-75
2022/05/29 03:57:10;;;;;;;7.53;3.35;;;12.30;72.80;;;;;;5093719;28;20051;-75
2022/05/29 03:59:35;;;;;;;6.97;3.38;;;12.20;73.00;;;;;;5093656;28;20021;-74
2022/05/29 04:02:01;;;;;;;8.80;3.67;;;12.20;73.40;;;;;;5092621;28;20038;-75
2022/05/29 04:04:27;;;;;;;10.25;3.25;;;12.10;73.60;;;;;;5093662;28;20020;-74
2022/05/29 04:06:52;;;;;;;8.88;3.40;;;12.10;73.60;;;;;;5093553;28;20033;-74
2022/05/29 04:12:07;;;;;;;7.68;3.10;;;12.10;74.10;;;;;;5093641;28;20467;-75
2022/05/29 04:14:39;;;;;;;8.02;3.30;;;12.10;73.60;;;;;;5093525;28;20048;-74
2022/05/29 04:17:06;;;;;;;7.28;3.42;;;12.10;74.20;;;;;;5093494;28;20039;-74
2022/05/29 04:19:32;;;;;;;8.45;3.53;;;12.10;74.30;;;;;;5093420;28;20028;-74
2022/05/29 04:21:58;;;;;;;9.45;3.72;;;12.10;74.50;;;;;;5093361;28;20032;-75
2022/05/29 04:24:24;;;;;;;8.32;3.88;;;12.20;74.30;;;;;;5093362;28;20151;-75
2022/05/29 04:26:50;;;;;;;9.25;3.63;;;12.20;74.20;;;;;;5093146;28;20114;-74
2022/05/29 04:29:18;;;;;;;7.10;3.35;;;12.20;74.60;;;;;;5093171;28;20483;-74
2022/05/29 04:34:29;;;;;;;8.05;3.40;;;12.40;74.00;;;;;;5093347;28;20039;-74
2022/05/29 04:36:54;;;;;;;11.02;3.83;;;12.40;74.20;;;;;;5092962;28;20511;-74
2022/05/29 04:39:20;;;;;;;7.25;3.55;;;12.40;74.40;;;;;;5093199;28;20055;-75
2022/05/29 04:41:46;;;;;;;8.43;3.60;;;12.40;74.30;;;;;;5093123;28;20029;-75
2022/05/29 04:44:12;;;;;;;7.88;3.60;;;12.40;74.50;;;;;;5093276;28;20033;-75
2022/05/29 04:46:37;;;;;;;7.63;3.28;;;12.30;75.30;;;;;;5093085;28;20025;-75
2022/05/29 04:49:03;;;;;;;7.55;3.00;;;12.30;74.90;;;;;;5093002;28;20058;-75
2022/05/29 04:51:29;;;;;;;7.28;3.22;;;12.30;74.90;;;;;;5093080;28;20036;-75
2022/05/29 04:53:54;;;;;;;9.82;3.30;;;12.20;75.50;;;;;;5093009;28;20048;-75
2022/05/29 04:56:20;;;;;;;8.00;3.47;;;12.20;75.50;;;;;;5093028;28;20024;-75
2022/05/29 04:58:46;;;;;;;8.63;3.00;;;12.20;75.40;;;;;;5093003;28;20088;-75
2022/05/29 05:01:11;;;;;;;6.22;2.90;;;12.30;75.60;;;;;;5092975;28;20123;-75
2022/05/29 05:03:37;;;;;;;7.40;3.22;;;12.30;75.30;;;;;;5092967;28;20037;-75
2022/05/29 05:06:03;;;;;;;5.72;2.47;;;12.30;75.50;;;;;;5093090;28;20059;-75
2022/05/29 05:08:28;;;;;;;6.70;2.67;;;12.30;75.30;;;;;;5092853;28;20036;-75
2022/05/29 05:10:54;;;;;;;6.53;2.70;;;12.40;75.20;;;;;;5092078;28;20044;-75
2022/05/29 05:13:20;;;;;;;5.88;2.65;;;12.50;75.30;;;;;;5092900;28;20024;-75
2022/05/29 05:15:46;;;;;;;6.78;3.00;;;12.40;75.40;;;;;;5092838;28;20031;-75
2022/05/29 05:18:12;;;;;;;10.02;3.00;;;12.40;75.90;;;;;;5092841;28;20032;-75
2022/05/29 05:20:38;;;;;;;5.82;2.70;;;12.40;76.30;;;;;;5091829;28;20033;-75
2022/05/29 05:23:04;;;;;;;6.35;2.58;;;12.30;76.60;;;;;;5092791;28;20029;-75
2022/05/29 05:25:30;;;;;;;6.00;2.65;;;12.30;77.00;;;;;;5092750;28;20032;-75
2022/05/29 05:27:56;;;;;;;4.80;2.60;;;12.30;76.70;;;;;;5092439;28;20083;-75
2022/05/29 05:30:22;;;;;;;8.85;2.70;;;12.30;76.90;;;;;;5092698;28;20020;-75
2022/05/29 05:32:47;;;;;;;5.35;2.58;;;12.30;77.00;;;;;;5092678;28;20025;-75
2022/05/29 05:35:13;;;;;;;6.00;2.10;;;12.30;76.70;;;;;;5092673;28;20024;-75
2022/05/29 05:37:39;;;;;;;5.72;2.25;;;12.30;76.80;;;;;;5092759;28;20056;-75
2022/05/29 05:40:09;;;;;;;6.18;2.28;;;12.40;76.70;;;;;;5092585;28;20082;-75
2022/05/29 05:42:35;;;;;;;6.90;2.30;;;12.40;76.40;;;;;;5092748;28;20020;-75
2022/05/29 05:45:00;;;;;;;4.78;2.50;;;12.40;76.20;;;;;;5092554;28;20074;-76
2022/05/29 05:47:26;;;;;;;5.97;2.30;;;12.50;75.90;;;;;;5092341;28;20063;-75
2022/05/29 05:49:52;;;;;;;6.30;2.35;;;12.60;75.90;;;;;;5096172;28;20035;-75
2022/05/29 05:52:18;;;;;;;6.70;2.45;;;12.60;75.70;;;;;;5096116;28;20039;-75
2022/05/29 05:54:45;;;;;;;3.88;2.00;;;12.60;75.80;;;;;;5096077;28;20024;-75
2022/05/29 05:57:10;;;;;;;4.90;1.88;;;12.60;75.80;;;;;;5096195;28;20021;-75
2022/05/29 05:59:39;;;;;;;8.10;2.25;;;12.60;75.90;;;;;;5095981;28;20099;-75
2022/05/29 06:02:09;;;;;;;5.10;1.85;;;12.60;75.90;;;;;;5095987;28;20171;-75
2022/05/29 06:04:36;;;;;;;4.45;1.88;;;12.60;75.80;;;;;;5096074;28;20052;-75
2022/05/29 06:07:01;;;;;;;3.97;1.75;;;12.60;75.80;;;;;;5095952;28;20029;-75
2022/05/29 06:09:29;;;;;;;4.05;1.65;;;12.60;75.80;;;;;;5095784;28;20040;-75
2022/05/29 06:11:54;;;;;;;3.70;1.80;;;12.70;76.00;;;;;;5095787;28;20432;-75
2022/05/29 06:14:20;;;;;;;4.15;1.70;;;12.70;76.10;;;;;;5095754;28;20028;-75
2022/05/29 06:16:45;;;;;;;2.53;1.40;;;12.80;76.20;;;;;;5094814;28;20046;-75
2022/05/29 06:19:11;;;;;;;2.72;1.33;;;12.80;76.30;;;;;;5095659;28;20020;-75
2022/05/29 06:21:37;;;;;;;4.28;1.60;;;12.70;76.20;;;;;;5095596;28;20032;-75
2022/05/29 06:24:03;;;;;;;3.20;1.65;;;12.80;76.20;;;;;;5095611;28;20037;-75
2022/05/29 06:26:28;;;;;;;6.28;1.73;;;12.70;75.80;;;;;;5095275;28;20071;-75
2022/05/29 06:28:54;;;;;;;2.45;1.65;;;12.70;75.80;;;;;;5095329;28;20103;-76
2022/05/29 06:31:19;;;;;;;4.15;1.52;;;12.80;75.80;;;;;;5095529;28;20044;-75
2022/05/29 06:33:45;;;;;;;4.63;1.48;;;12.80;75.80;;;;;;5095226;28;20036;-75
2022/05/29 06:36:17;;;;;;;5.85;1.85;;;12.80;75.50;;;;;;5095422;28;20035;-76
2022/05/29 06:38:45;;;;;;;5.60;1.60;;;12.80;75.80;;;;;;5095391;28;20020;-75
2022/05/29 06:41:13;;;;;;;5.55;1.50;;;12.80;75.90;;;;;;5095277;28;20278;-75
2022/05/29 06:43:39;;;;;;;3.20;1.95;;;12.80;76.30;;;;;;5095221;28;20035;-76
2022/05/29 06:46:07;;;;;;;3.38;1.80;;;12.80;76.30;;;;;;5095152;28;20032;-76
2022/05/29 06:48:34;;;;;;;6.60;1.95;;;12.70;76.60;;;;;;5094982;28;20029;-75
2022/05/29 06:51:22;;;;;;;5.63;1.70;;;12.70;76.70;;;;;;5095044;28;20096;-75
2022/05/29 06:53:53;;;;;;;3.90;1.83;;;12.70;77.20;;;;;;5095076;28;20058;-74
2022/05/29 06:56:19;;;;;;;4.22;2.15;;;12.60;77.50;;;;;;5094983;28;20084;-75
2022/05/29 06:58:45;;;;;;;4.63;2.20;;;12.60;77.20;;;;;;5094541;28;20029;-74
2022/05/29 07:07:00;;;;;;;4.60;1.88;;;12.60;78.10;;;;;;5094866;28;20050;-74
2022/05/29 07:09:33;;;;;;;6.57;2.13;;;12.60;77.80;;;;;;5094738;28;20032;-75
2022/05/29 07:12:10;;;;;;;4.80;2.35;;;12.70;77.80;;;;;;5094646;28;20024;-74
2022/05/29 07:14:49;;;;;;;4.53;2.53;;;12.80;78.00;;;;;;5094698;28;20076;-74
2022/05/29 07:17:15;;;;;;;6.25;2.38;;;12.80;77.90;;;;;;5094645;28;20035;-74
2022/05/29 07:19:41;;;;;;;6.70;2.95;;;12.80;78.20;;;;;;5094457;28;20025;-74
2022/05/29 07:22:08;;;;;;;5.45;2.63;;;12.80;78.30;;;;;;5094445;28;20392;-73
2022/05/29 07:24:36;;;;;;;4.90;2.67;;;12.80;77.90;;;;;;5094332;28;20025;-74
2022/05/29 07:27:02;;;;;;;5.82;2.53;;;12.80;78.20;;;;;;5094158;28;20045;-74
2022/05/29 07:29:27;;;;;;;5.13;3.22;;;12.80;79.20;;;;;;5094144;28;20074;-74
2022/05/29 07:31:54;;;;;;;6.10;2.95;;;12.90;79.00;;;;;;5094226;28;20029;-75
2022/05/29 07:34:20;;;;;;;7.30;3.08;;;13.00;79.40;;;;;;5094151;28;20145;-74
2022/05/29 07:36:46;;;;;;;6.22;3.53;;;13.10;80.40;;;;;;5094067;28;20077;-74
2022/05/29 07:39:13;;;;;;;8.25;3.22;;;13.20;79.20;;;;;;5094013;28;20033;-74
2022/05/29 07:44:23;;;;;;;6.20;3.15;;;13.30;79.10;;;;;;5094118;28;20036;-75
2022/05/29 07:46:49;;;;;;;4.93;2.80;;;13.40;79.20;;;;;;5094049;28;20029;-75
2022/05/29 07:49:15;;;;;;;7.68;3.15;;;13.50;78.80;;;;;;5093816;28;20041;-75
2022/05/29 07:51:40;;;;;;;3.40;2.25;;;13.50;78.00;;;;;;5093943;28;20037;-74
2022/05/29 07:54:06;;;;;;;5.55;2.60;;;13.60;77.20;;;;;;5093914;28;20142;-75
2022/05/29 07:56:32;;;;;;;8.05;2.90;;;13.60;76.80;;;;;;5093728;28;20029;-74
2022/05/29 07:58:57;;;;;;;6.15;3.05;;;13.60;76.40;;;;;;5093691;28;20025;-75
2022/05/29 08:01:23;;;;;;;5.38;3.10;;;13.70;76.70;;;;;;5093812;28;20055;-74
2022/05/29 08:03:48;;;;;;;7.50;3.10;;;13.70;76.90;;;;;;5093765;28;20037;-75
2022/05/29 08:06:15;;;;;;;6.95;2.30;;;13.70;77.60;;;;;;5093578;28;20029;-75
2022/05/29 08:08:41;;;;;;;3.25;2.58;;;13.70;77.20;;;;;;5093495;28;20051;-75
2022/05/29 08:11:07;;;;;;;5.15;2.55;;;13.70;76.70;;;;;;5092997;28;20036;-75
2022/05/29 08:13:35;;;;;;;5.53;2.42;;;13.70;77.60;;;;;;5093521;28;20024;-74
2022/05/29 08:16:02;;;;;;;7.13;2.55;;;13.70;77.00;;;;;;5093511;28;20104;-75
2022/05/29 08:18:27;;;;;;;5.07;2.60;;;13.70;77.30;;;;;;5093548;28;20091;-76
2022/05/29 08:20:53;;;;;;;7.65;2.47;;;13.80;77.00;;;;;;5093395;28;20115;-75
2022/05/29 08:23:19;;;;;;;3.38;2.28;;;13.90;77.40;;;;;;5092441;28;20020;-76
2022/05/29 08:30:37;;;;;;;3.70;1.90;;;13.90;76.20;;;;;;5093040;28;20112;-75
2022/05/29 08:31:28;;;;;;;3.42;2.10;;;13.90;75.60;;;;;;5093187;28;20041;-76
2022/05/29 08:33:54;;;;;;;3.70;1.88;;;13.80;75.90;;;;;;5092301;28;20025;-74
2022/05/29 08:36:24;;;;;;;7.03;2.50;;;13.80;76.00;;;;;;5093184;28;20036;-75
2022/05/29 08:38:52;;;;;;;6.03;1.40;;;13.70;76.40;;;;;;5093258;28;20024;-75
2022/05/29 08:41:48;;;;;;;2.60;1.35;;;13.80;76.00;;;;;;5093174;28;20035;-75
2022/05/29 08:44:17;;;;;;;4.40;1.27;;;13.80;76.10;;;;;;5088372;28;20054;-74
2022/05/29 08:46:52;;;;;;;3.38;1.50;;;13.80;75.80;;;;;;5092043;28;20024;-74
2022/05/29 08:49:21;;;;;;;3.05;1.23;;;13.90;75.40;;;;;;5093070;28;20021;-75
2022/05/29 08:52:05;;;;;;;2.88;1.25;;;13.90;75.30;;;;;;5093070;28;20081;-75
2022/05/29 08:54:51;;;;;;;6.40;1.45;;;14.00;75.00;;;;;;5093263;28;20044;-74
2022/05/29 08:57:37;;;;;;;4.13;1.23;;;14.10;74.70;;;;;;5092003;28;20059;-75
2022/05/29 09:00:09;;;;;;;2.25;1.20;;;14.10;74.10;;;;;;5093064;28;20028;-74
2022/05/29 09:02:52;;;;;;;3.70;1.65;;;14.20;74.00;;;;;;5092030;28;20103;-75
2022/05/29 09:05:39;;;;;;;4.45;1.80;;;14.30;73.80;;;;;;5092995;28;20051;-75
2022/05/29 09:08:30;;;;;;;4.95;1.80;;;14.30;73.30;;;;;;5092903;28;20055;-75
2022/05/29 09:11:07;;;;;;;3.38;1.92;;;14.30;73.10;;;;;;5092373;28;20041;-75
2022/05/29 09:13:40;;;;;;;5.75;2.00;;;14.40;72.90;;;;;;5092935;28;20017;-75
2022/05/29 09:16:19;;;;;;;5.55;2.20;;;14.40;72.90;;;;;;5092887;28;20044;-74
2022/05/29 09:19:09;;;;;;;6.82;2.30;;;14.50;73.80;;;;;;5092785;28;20034;-75
2022/05/29 09:22:02;;;;;;;7.60;2.38;;;14.50;72.80;;;;;;5094138;28;20025;-75
2022/05/29 09:24:30;;;;;;;5.93;2.58;;;14.50;72.40;;;;;;5096735;28;20036;-75
2022/05/29 09:26:56;;;;;;;5.63;2.40;;;14.50;72.00;;;;;;5096402;28;20051;-75
2022/05/29 09:29:22;;;;;;;6.68;2.20;;;14.50;72.30;;;;;;5096411;28;20032;-75
2022/05/29 09:31:47;;;;;;;5.07;2.30;;;14.60;72.50;;;;;;5095303;28;20043;-74
2022/05/29 09:34:13;;;;;;;5.13;2.40;;;14.70;72.30;;;;;;5096445;28;20084;-75
2022/05/29 09:37:08;;;;;;;2.92;2.00;;;14.80;71.90;;;;;;5096407;28;20054;-75
2022/05/29 09:39:47;;;;;;;6.05;2.00;;;14.90;71.30;;;;;;5096437;28;20021;-75
2022/05/29 09:42:24;;;;;;;5.07;2.00;;;15.10;71.30;;;;;;5096495;28;20025;-75
2022/05/29 09:45:12;;;;;;;7.53;2.15;;;15.20;71.70;;;;;;5096322;28;20052;-75
2022/05/29 09:50:38;;;;;;;3.80;1.63;;;15.50;69.30;;;;;;5096373;28;20051;-74
2022/05/29 09:53:10;;;;;;;4.05;1.20;;;15.50;68.90;;;;;;5096293;28;20024;-74
2022/05/29 09:55:37;;;;;;;5.03;1.43;;;15.50;68.80;;;;;;5095200;28;20021;-75
2022/05/29 09:58:17;;;;;;;1.95;1.00;;;15.50;67.80;;;;;;5095962;28;20074;-74
2022/05/29 10:01:02;;;;;;;2.83;1.10;;;15.50;66.10;;;;;;5096043;28;20084;-74
2022/05/29 10:03:33;;;;;;;5.50;1.45;;;15.40;66.90;;;;;;5095964;28;20029;-75
2022/05/29 10:06:25;;;;;;;3.22;1.27;;;15.40;66.70;;;;;;5096049;28;20032;-75
2022/05/29 10:08:52;;;;;;;4.07;1.85;;;15.50;66.50;;;;;;5088707;28;20048;-75
2022/05/29 10:11:28;;;;;;;4.72;1.52;;;15.50;67.00;;;;;;5095833;28;20017;-75
2022/05/29 10:13:54;;;;;;;3.78;1.42;;;15.60;66.70;;;;;;5095848;28;20085;-74
2022/05/29 10:16:38;;;;;;;6.80;1.58;;;15.70;66.40;;;;;;5095707;28;20112;-75
2022/05/29 10:19:09;;;;;;;5.13;1.80;;;15.70;66.40;;;;;;5095620;28;20031;-74
2022/05/29 10:21:48;;;;;;;3.28;1.35;;;15.70;66.40;;;;;;5095675;28;20123;-75
2022/05/29 10:24:22;;;;;;;4.47;1.40;;;15.80;66.50;;;;;;5095634;28;20498;-75
2022/05/29 10:26:51;;;;;;;3.90;1.02;;;15.70;66.10;;;;;;5095412;28;20040;-74
2022/05/29 10:29:19;;;;;;;2.78;0.60;;;15.60;65.70;;;;;;5095384;28;20107;-75
2022/05/29 10:31:48;;;;;;;2.65;0.68;;;15.40;64.30;;;;;;5095449;28;20035;-74
2022/05/29 10:34:22;;;;;;;2.17;0.85;;;15.30;64.00;;;;;;5094686;28;20017;-74
2022/05/29 10:36:48;;;;;;;0.77;0.70;;;15.30;64.50;;;;;;5095315;28;20020;-74
2022/05/29 10:39:28;;;;;;;1.48;1.30;;;15.20;65.00;;;;;;5095306;28;20050;-74
2022/05/29 10:41:55;;;;;;;1.95;0.63;;;15.20;65.60;;;;;;5095233;28;20016;-74
2022/05/29 10:44:57;;;;;;;0.95;0.55;;;15.20;64.90;;;;;;5095186;28;20047;-75
2022/05/29 10:47:41;;;;;;;0.65;0.50;;;15.10;65.00;;;;;;5063077;28;20047;-75
2022/05/29 10:50:34;;;;;;;0.75;0.40;;;15.20;65.60;;;;;;5095120;28;20555;-74
2022/05/29 10:53:14;;;;;;;2.30;0.65;;;15.10;65.90;;;;;;5095219;28;20103;-75
2022/05/29 10:55:58;;;;;;;3.05;0.30;;;14.90;66.40;;;;;;5095143;28;20028;-74
2022/05/29 10:58:39;;;;;;;2.33;0.50;;;14.90;66.90;;;;;;5095008;28;20035;-74
2022/05/29 11:01:04;;;;;;;0.93;0.47;;;14.90;67.60;;;;;;5094924;28;20471;-74
2022/05/29 11:03:42;;;;;;;0.68;0.30;;;14.90;66.20;;;;;;5094748;28;20032;-74
2022/05/29 11:06:23;;;;;;;0.93;0.32;;;14.90;66.40;;;;;;5094658;28;20027;-74
2022/05/29 11:09:31;;;;;;;0.93;0.40;;;15.00;67.10;;;;;;5093573;28;20044;-74
2022/05/29 11:12:05;;;;;;;2.10;0.50;;;15.10;65.90;;;;;;5094747;28;20020;-74
2022/05/29 11:14:31;;;;;;;1.13;0.60;;;15.20;67.50;;;;;;5094752;28;20025;-74
2022/05/29 11:17:15;;;;;;;1.83;0.60;;;15.40;67.30;;;;;;5094647;28;20395;-74
2022/05/29 11:20:13;;;;;;;3.20;0.80;;;15.40;67.30;;;;;;5094533;28;20028;-74
2022/05/29 11:23:00;;;;;;;1.63;0.73;;;15.60;67.20;;;;;;5093915;28;20101;-74
2022/05/29 11:25:59;;;;;;;2.38;1.05;;;15.80;67.20;;;;;;5094412;28;20024;-74
2022/05/29 11:28:44;;;;;;;3.42;1.00;;;15.90;66.70;;;;;;5093923;28;20049;-74
2022/05/29 11:31:15;;;;;;;3.35;0.98;;;15.90;67.10;;;;;;5094277;28;20033;-74
2022/05/29 11:34:10;;;;;;;1.05;0.43;;;15.80;67.90;;;;;;5094370;28;20029;-74
2022/05/29 11:37:06;;;;;;;1.92;0.77;;;15.60;68.40;;;;;;5094229;28;20027;-74
2022/05/29 11:39:45;;;;;;;1.27;0.73;;;15.40;69.70;;;;;;5094254;28;20024;-74
2022/05/29 11:42:36;;;;;;;2.35;0.75;;;15.30;70.40;;;;;;5094157;28;20028;-74
2022/05/29 11:45:23;;;;;;;4.50;1.17;;;15.20;70.60;;;;;;5093094;28;20024;-74
2022/05/29 11:51:10;;;;;;;3.58;1.02;;;15.10;72.10;;;;;;5094096;28;20039;-74
2022/05/29 11:53:43;;;;;;;3.00;1.10;;;15.20;72.30;;;;;;5093875;28;20028;-74
2022/05/29 11:56:30;;;;;;;4.47;1.30;;;15.20;72.40;;;;;;5093796;28;20048;-74
2022/05/29 11:59:10;;;;;;;2.45;1.35;;;15.20;72.20;;;;;;5093915;28;20066;-74
2022/05/29 12:01:43;;;;;;;5.90;1.50;;;15.20;72.90;;;;;;5092647;28;20025;-75
2022/05/29 12:04:29;;;;;;;3.60;1.42;;;15.30;72.60;;;;;;5093696;28;20027;-74
2022/05/29 12:07:24;;;;;;;3.90;1.80;;;15.40;73.20;;;;;;5093677;28;20020;-74
2022/05/29 12:10:01;;;;;;;2.58;1.75;;;15.50;73.30;;;;;;5093073;28;20052;-75
2022/05/29 12:12:43;;;;;;;5.18;1.92;;;15.60;73.20;;;;;;5093658;28;20040;-74
2022/05/29 12:15:14;;;;;;;4.15;1.80;;;15.70;73.20;;;;;;5093555;28;20029;-74
2022/05/29 12:17:46;;;;;;;5.43;1.38;;;15.80;72.70;;;;;;5093520;28;20027;-74
2022/05/29 12:20:15;;;;;;;5.40;1.20;;;15.80;71.60;;;;;;5093523;28;20025;-74
2022/05/29 12:23:20;;;;;;;2.72;0.90;;;15.70;69.80;;;;;;5093426;28;20336;-74
2022/05/29 12:25:54;;;;;;;4.35;1.08;;;15.60;68.50;;;;;;5093436;28;20029;-74
2022/05/29 12:28:40;;;;;;;5.22;1.10;;;15.50;68.80;;;;;;5093010;28;20082;-74
2022/05/29 12:31:10;;;;;;;4.70;1.20;;;15.50;69.20;;;;;;5092951;28;20063;-74
2022/05/29 12:33:35;;;;;;;4.22;1.25;;;15.50;69.20;;;;;;5093426;28;20021;-74
2022/05/29 12:36:25;;;;;;;3.90;1.10;;;15.50;69.20;;;;;;5093234;28;20056;-74
2022/05/29 12:39:10;;;;;;;5.15;1.20;;;15.50;69.30;;;;;;5093273;28;20044;-74
2022/05/29 12:41:46;;;;;;;5.47;1.10;;;15.50;68.30;;;;;;5093272;28;20070;-74
2022/05/29 12:44:30;;;;;;;3.25;0.93;;;15.50;67.30;;;;;;5093324;28;20028;-74
2022/05/29 12:47:14;;;;;;;3.50;0.98;;;15.50;67.00;;;;;;5093195;28;20080;-74
2022/05/29 12:49:49;;;;;;;3.83;1.00;;;15.60;66.90;;;;;;5093058;28;20028;-74
2022/05/29 12:52:23;;;;;;;5.25;1.58;;;15.70;66.90;;;;;;5093153;28;20031;-74
2022/05/29 12:55:08;;;;;;;5.28;1.33;;;15.90;67.00;;;;;;5093013;28;20013;-74
2022/05/29 12:57:53;;;;;;;2.28;0.90;;;16.10;65.90;;;;;;5096284;28;20038;-74
2022/05/29 13:00:32;;;;;;;4.00;1.10;;;16.20;65.30;;;;;;5097351;28;20080;-74
2022/05/29 13:03:36;;;;;;;2.88;0.95;;;16.20;64.10;;;;;;5097166;28;20017;-74
2022/05/29 13:06:27;;;;;;;3.03;1.13;;;16.30;63.50;;;;;;5097077;28;20048;-74
2022/05/29 13:09:24;;;;;;;7.20;1.33;;;16.30;64.10;;;;;;5096989;28;20025;-74
2022/05/29 13:12:00;;;;;;;4.97;1.20;;;16.30;62.20;;;;;;5095949;28;20024;-74
2022/05/29 13:14:27;;;;;;;6.55;1.60;;;16.30;62.90;;;;;;5096957;28;20046;-74
2022/05/29 13:17:08;;;;;;;3.53;1.40;;;16.50;64.10;;;;;;5096844;28;20020;-74
2022/05/29 13:19:57;;;;;;;4.35;1.20;;;16.60;65.10;;;;;;5096861;28;20048;-74
2022/05/29 13:22:44;;;;;;;4.15;1.23;;;16.60;63.70;;;;;;5088609;28;20107;-74
2022/05/29 13:25:10;;;;;;;4.40;1.00;;;16.60;61.60;;;;;;5096837;28;20025;-74
2022/05/29 13:27:36;;;;;;;4.35;1.20;;;16.50;61.70;;;;;;5096306;28;20059;-75
2022/05/29 13:30:06;;;;;;;5.35;1.10;;;16.40;60.40;;;;;;5096558;28;20051;-75
2022/05/29 13:32:33;;;;;;;2.85;1.02;;;16.40;60.30;;;;;;5096656;28;20013;-74
2022/05/29 13:35:06;;;;;;;3.03;0.95;;;16.40;61.60;;;;;;5096505;28;20047;-74
2022/05/29 13:37:31;;;;;;;6.30;1.20;;;16.50;60.90;;;;;;5095530;28;20021;-74
2022/05/29 13:40:02;;;;;;;1.88;0.70;;;16.50;61.60;;;;;;5096426;28;20066;-74
2022/05/29 13:42:32;;;;;;;4.72;1.20;;;16.70;62.10;;;;;;5096434;28;20052;-74